Time;durP1;ratioP1;P1;durP2;ratioP2;P2;SDS_P1;SDS_P2;PMS_P1;PMS_P2;Temp;Humidity;BMP_temperature;BMP_pressure;BME280_temperature;BME280_humidity;BME280_pressure;Samples;Min_cycle;Max_cycle;Signal;HPM_P1;HPM_P2
2020/12/16 00:00:42;;;;;;;28.27;22.85;;;;;;;;;;5014192;28;20241;-58
2020/12/16 00:03:07;;;;;;;23.73;20.27;;;;;;;;;;5016914;28;20296;-57
2020/12/16 00:05:33;;;;;;;23.67;20.97;;;;;;;;;;4999259;28;20545;-57
2020/12/16 00:07:58;;;;;;;27.60;22.90;;;;;;;;;;4996480;28;20192;-58
2020/12/16 00:10:23;;;;;;;24.40;21.17;;;;;;;;;;5014403;28;20214;-57
2020/12/16 00:12:49;;;;;;;28.33;21.80;;;;;;;;;;5024002;28;20179;-57
2020/12/16 00:15:14;;;;;;;26.92;21.50;;;;;;;;;;5009367;28;20187;-58
2020/12/16 00:17:39;;;;;;;24.77;20.90;;;;;;;;;;5010228;28;20181;-57
2020/12/16 00:20:06;;;;;;;30.17;24.20;;;;;;;;;;5011692;28;20267;-57
2020/12/16 00:22:38;;;;;;;25.03;21.73;;;;;;;;;;5016469;28;20183;-57
2020/12/16 00:25:03;;;;;;;26.90;22.80;;;;;;;;;;4996771;28;20743;-57
2020/12/16 00:27:28;;;;;;;25.40;22.70;;;;;;;;;;4997888;28;20695;-58
2020/12/16 00:29:53;;;;;;;25.67;22.15;;;;;;;;;;5008199;28;20295;-57
2020/12/16 00:32:19;;;;;;;26.73;22.90;;;;;;;;;;5010242;28;20217;-57
2020/12/16 00:34:44;;;;;;;26.92;22.23;;;;;;;;;;5001732;28;20785;-57
2020/12/16 00:37:09;;;;;;;30.05;23.52;;;;;;;;;;5015562;28;20235;-57
2020/12/16 00:39:34;;;;;;;27.25;23.90;;;;;;;;;;4999944;28;20186;-57
2020/12/16 00:41:59;;;;;;;28.57;22.93;;;;;;;;;;5008188;28;20587;-57
2020/12/16 00:44:24;;;;;;;27.40;22.80;;;;;;;;;;5004094;28;20208;-57
2020/12/16 00:46:49;;;;;;;27.10;23.77;;;;;;;;;;5012134;28;20520;-57
2020/12/16 00:49:15;;;;;;;28.50;23.63;;;;;;;;;;5006365;28;20170;-58
2020/12/16 00:51:40;;;;;;;27.88;23.90;;;;;;;;;;5001342;28;20240;-57
2020/12/16 00:54:05;;;;;;;26.10;23.30;;;;;;;;;;5009340;28;20172;-57
2020/12/16 00:56:30;;;;;;;28.10;24.00;;;;;;;;;;5008186;28;20191;-57
2020/12/16 00:58:55;;;;;;;25.30;22.00;;;;;;;;;;5006098;28;20660;-57
2020/12/16 01:01:20;;;;;;;26.93;22.70;;;;;;;;;;5005611;28;20201;-58
2020/12/16 01:03:45;;;;;;;26.60;23.73;;;;;;;;;;4993662;28;20657;-57
2020/12/16 01:06:11;;;;;;;26.38;23.25;;;;;;;;;;5011836;28;20192;-57
2020/12/16 01:08:38;;;;;;;27.13;23.97;;;;;;;;;;4996071;28;20182;-57
2020/12/16 01:11:03;;;;;;;28.57;22.53;;;;;;;;;;4996057;28;20649;-57
2020/12/16 01:13:28;;;;;;;26.87;23.07;;;;;;;;;;5012452;28;20635;-58
2020/12/16 01:15:53;;;;;;;28.92;25.15;;;;;;;;;;5010233;28;20255;-57
2020/12/16 01:18:18;;;;;;;28.80;23.73;;;;;;;;;;5008223;28;20187;-57
2020/12/16 01:20:43;;;;;;;27.00;23.90;;;;;;;;;;4997829;28;20198;-57
2020/12/16 01:23:09;;;;;;;29.40;24.02;;;;;;;;;;5005920;28;20246;-57
2020/12/16 01:25:34;;;;;;;28.60;24.43;;;;;;;;;;5005593;28;20217;-57
2020/12/16 01:28:00;;;;;;;30.40;25.50;;;;;;;;;;4991739;28;20672;-57
2020/12/16 01:30:25;;;;;;;29.50;24.73;;;;;;;;;;5010991;28;20209;-57
2020/12/16 01:32:51;;;;;;;27.37;24.20;;;;;;;;;;5006536;28;20180;-58
2020/12/16 01:35:16;;;;;;;31.50;25.37;;;;;;;;;;5017181;28;20261;-57
2020/12/16 01:37:41;;;;;;;31.93;26.50;;;;;;;;;;4990219;28;20199;-57
2020/12/16 01:40:08;;;;;;;30.35;24.30;;;;;;;;;;5008332;28;20259;-57
2020/12/16 01:42:37;;;;;;;33.30;26.50;;;;;;;;;;5006242;28;20675;-57
2020/12/16 01:45:11;;;;;;;29.53;24.80;;;;;;;;;;5009672;28;20640;-57
2020/12/16 01:47:36;;;;;;;32.77;26.90;;;;;;;;;;5009477;28;20609;-57
2020/12/16 01:50:02;;;;;;;32.07;26.27;;;;;;;;;;5007660;28;20642;-58
2020/12/16 01:52:29;;;;;;;28.20;24.90;;;;;;;;;;5003460;28;20639;-57
2020/12/16 01:54:54;;;;;;;30.23;26.93;;;;;;;;;;4994484;28;20596;-57
2020/12/16 01:57:21;;;;;;;30.70;26.70;;;;;;;;;;5008331;28;20607;-56
2020/12/16 01:59:47;;;;;;;32.57;26.90;;;;;;;;;;5007586;28;20650;-57
2020/12/16 02:02:14;;;;;;;31.00;26.07;;;;;;;;;;5014370;28;20643;-57
2020/12/16 02:04:40;;;;;;;31.53;26.73;;;;;;;;;;4995470;28;20196;-57
2020/12/16 02:07:06;;;;;;;32.43;27.17;;;;;;;;;;5005944;28;20596;-57
2020/12/16 02:09:34;;;;;;;34.30;27.90;;;;;;;;;;4986958;28;20621;-57
2020/12/16 02:12:06;;;;;;;32.43;26.07;;;;;;;;;;4995625;28;20613;-57
2020/12/16 02:14:32;;;;;;;35.10;28.23;;;;;;;;;;5003661;28;21318;-58
2020/12/16 02:16:57;;;;;;;34.27;28.17;;;;;;;;;;5007169;28;20695;-57
2020/12/16 02:19:23;;;;;;;33.03;27.58;;;;;;;;;;5002571;28;20189;-57
2020/12/16 02:21:48;;;;;;;32.60;27.27;;;;;;;;;;5008320;28;20176;-57
2020/12/16 02:24:13;;;;;;;31.03;27.40;;;;;;;;;;5015050;28;21250;-57
2020/12/16 02:26:39;;;;;;;31.93;27.33;;;;;;;;;;5016041;28;20211;-57
2020/12/16 02:29:05;;;;;;;36.60;28.30;;;;;;;;;;5008614;28;20193;-56
2020/12/16 02:31:35;;;;;;;34.87;28.17;;;;;;;;;;5021228;28;20205;-57
2020/12/16 02:34:00;;;;;;;32.03;27.27;;;;;;;;;;5008144;28;20621;-56
2020/12/16 02:36:25;;;;;;;36.70;29.27;;;;;;;;;;5005497;28;20755;-56
2020/12/16 02:38:51;;;;;;;36.43;29.43;;;;;;;;;;5001565;28;20177;-57
2020/12/16 02:41:17;;;;;;;34.80;28.00;;;;;;;;;;5005369;28;20192;-57
2020/12/16 02:43:42;;;;;;;35.23;29.03;;;;;;;;;;5011463;28;21046;-57
2020/12/16 02:46:07;;;;;;;33.97;28.10;;;;;;;;;;5010648;28;20192;-57
2020/12/16 02:48:32;;;;;;;34.83;28.97;;;;;;;;;;4992878;28;20186;-58
2020/12/16 02:50:57;;;;;;;36.17;29.23;;;;;;;;;;5022101;28;20251;-57
2020/12/16 02:53:22;;;;;;;34.83;28.90;;;;;;;;;;5018239;28;20192;-57
2020/12/16 02:55:48;;;;;;;35.80;28.35;;;;;;;;;;5015621;28;20176;-57
2020/12/16 02:58:13;;;;;;;37.92;29.30;;;;;;;;;;5002438;28;20536;-57
2020/12/16 03:00:38;;;;;;;34.60;27.63;;;;;;;;;;5015252;28;20181;-57
2020/12/16 03:03:03;;;;;;;37.83;29.10;;;;;;;;;;5013459;28;20205;-57
2020/12/16 03:05:28;;;;;;;35.67;28.52;;;;;;;;;;5018186;28;20597;-57
2020/12/16 03:07:53;;;;;;;37.22;29.52;;;;;;;;;;5017804;28;20293;-57
2020/12/16 03:10:19;;;;;;;41.23;30.03;;;;;;;;;;5016088;28;20248;-56
2020/12/16 03:12:44;;;;;;;36.10;28.50;;;;;;;;;;5020280;28;20216;-57
2020/12/16 03:15:09;;;;;;;38.67;28.40;;;;;;;;;;5012353;28;20631;-57
2020/12/16 03:17:34;;;;;;;35.30;27.87;;;;;;;;;;4998431;28;20194;-59
2020/12/16 03:19:59;;;;;;;38.13;28.73;;;;;;;;;;5013998;28;20587;-56
2020/12/16 03:22:24;;;;;;;34.30;28.13;;;;;;;;;;5009543;28;20199;-56
2020/12/16 03:24:50;;;;;;;38.63;29.85;;;;;;;;;;5013995;28;20202;-57
2020/12/16 03:27:15;;;;;;;38.23;29.27;;;;;;;;;;5006307;28;20217;-57
2020/12/16 03:29:40;;;;;;;37.70;29.77;;;;;;;;;;5013791;28;20598;-57
2020/12/16 03:32:05;;;;;;;34.47;27.93;;;;;;;;;;5014751;28;20195;-57
2020/12/16 03:34:30;;;;;;;36.40;28.33;;;;;;;;;;5008411;28;20595;-57
2020/12/16 03:36:55;;;;;;;35.08;27.77;;;;;;;;;;4995480;28;20176;-57
2020/12/16 03:39:21;;;;;;;34.53;29.07;;;;;;;;;;5010258;28;20184;-56
2020/12/16 03:41:46;;;;;;;33.60;28.03;;;;;;;;;;5020187;28;20699;-56
2020/12/16 03:44:11;;;;;;;33.92;28.08;;;;;;;;;;5002152;28;20201;-56
2020/12/16 03:46:36;;;;;;;33.58;27.23;;;;;;;;;;5010261;28;20210;-56
2020/12/16 03:49:01;;;;;;;36.78;27.55;;;;;;;;;;5008029;28;20677;-57
2020/12/16 03:51:26;;;;;;;36.63;29.00;;;;;;;;;;5020002;28;20201;-56
2020/12/16 03:53:52;;;;;;;34.80;27.95;;;;;;;;;;5002445;28;20181;-57
2020/12/16 03:56:17;;;;;;;35.97;28.17;;;;;;;;;;5023636;28;20185;-57
2020/12/16 03:58:43;;;;;;;38.42;30.40;;;;;;;;;;5008996;28;20216;-57
2020/12/16 04:01:09;;;;;;;37.10;28.03;;;;;;;;;;5009126;28;20189;-57
2020/12/16 04:03:34;;;;;;;37.23;28.70;;;;;;;;;;5017533;28;21232;-57
2020/12/16 04:05:59;;;;;;;37.30;28.53;;;;;;;;;;5012529;28;20184;-57
2020/12/16 04:08:25;;;;;;;35.43;28.17;;;;;;;;;;5008033;28;20203;-56
2020/12/16 04:10:50;;;;;;;37.97;28.80;;;;;;;;;;5001547;28;20209;-57
2020/12/16 04:13:15;;;;;;;39.43;29.67;;;;;;;;;;5005144;28;20886;-57
2020/12/16 04:15:42;;;;;;;40.05;29.45;;;;;;;;;;5012086;28;20288;-57
2020/12/16 04:18:07;;;;;;;40.73;29.60;;;;;;;;;;5002474;28;20193;-57
2020/12/16 04:20:32;;;;;;;41.10;29.80;;;;;;;;;;4999433;28;21425;-56
2020/12/16 04:22:58;;;;;;;36.78;27.80;;;;;;;;;;4996734;28;20673;-57
2020/12/16 04:25:23;;;;;;;37.58;29.25;;;;;;;;;;5006970;28;20311;-57
2020/12/16 04:27:48;;;;;;;38.13;28.63;;;;;;;;;;5006636;28;20186;-57
2020/12/16 04:30:13;;;;;;;40.38;30.05;;;;;;;;;;5002472;28;20677;-57
2020/12/16 04:32:38;;;;;;;38.53;28.92;;;;;;;;;;4999519;28;20266;-58
2020/12/16 04:35:03;;;;;;;36.60;28.23;;;;;;;;;;5011024;28;20191;-57
2020/12/16 04:37:28;;;;;;;36.67;27.97;;;;;;;;;;5010463;28;20674;-57
2020/12/16 04:39:54;;;;;;;38.10;29.80;;;;;;;;;;5000550;28;20636;-57
2020/12/16 04:42:19;;;;;;;40.55;29.75;;;;;;;;;;4995097;28;20766;-57
2020/12/16 04:44:44;;;;;;;39.13;28.87;;;;;;;;;;4999811;28;20166;-57
2020/12/16 04:47:09;;;;;;;41.90;30.17;;;;;;;;;;5015087;28;20185;-57
2020/12/16 04:49:35;;;;;;;39.53;31.40;;;;;;;;;;5016162;28;20260;-57
2020/12/16 04:52:00;;;;;;;37.50;28.90;;;;;;;;;;5004137;28;20627;-57
2020/12/16 04:54:25;;;;;;;39.30;29.33;;;;;;;;;;5004550;28;20222;-57
2020/12/16 04:56:50;;;;;;;39.20;30.13;;;;;;;;;;5002919;28;20196;-57
2020/12/16 04:59:15;;;;;;;40.20;29.83;;;;;;;;;;5000891;28;20241;-56
2020/12/16 05:01:41;;;;;;;37.50;29.13;;;;;;;;;;5007371;28;20264;-57
2020/12/16 05:04:07;;;;;;;41.03;30.67;;;;;;;;;;5009590;28;20222;-56
2020/12/16 05:06:33;;;;;;;40.70;30.97;;;;;;;;;;5014038;28;20169;-56
2020/12/16 05:09:09;;;;;;;42.70;31.00;;;;;;;;;;4998078;28;20678;-57
2020/12/16 05:11:35;;;;;;;40.20;29.80;;;;;;;;;;4994161;28;20676;-56
2020/12/16 05:14:10;;;;;;;40.60;29.83;;;;;;;;;;5001784;28;20613;-58
2020/12/16 05:16:50;;;;;;;39.13;29.37;;;;;;;;;;5011770;28;20654;-58
2020/12/16 05:19:27;;;;;;;44.13;32.07;;;;;;;;;;5003385;28;20977;-58
2020/12/16 05:22:09;;;;;;;38.80;29.47;;;;;;;;;;5004168;28;20604;-58
2020/12/16 05:24:36;;;;;;;41.70;32.30;;;;;;;;;;5009892;28;20668;-58
2020/12/16 05:27:01;;;;;;;39.00;29.67;;;;;;;;;;4988420;28;20641;-56
2020/12/16 05:29:26;;;;;;;41.47;30.85;;;;;;;;;;5016090;28;21219;-57
2020/12/16 05:31:51;;;;;;;39.13;30.50;;;;;;;;;;5007294;28;20231;-55
2020/12/16 05:34:16;;;;;;;41.05;30.90;;;;;;;;;;5004771;28;20189;-58
2020/12/16 05:36:42;;;;;;;41.93;31.80;;;;;;;;;;5006586;28;20196;-56
2020/12/16 05:39:10;;;;;;;45.03;32.92;;;;;;;;;;5007488;28;20201;-57
2020/12/16 05:41:35;;;;;;;40.47;30.30;;;;;;;;;;5010874;28;20185;-56
2020/12/16 05:44:16;;;;;;;41.20;30.97;;;;;;;;;;5006149;28;20600;-57
2020/12/16 05:46:42;;;;;;;37.10;29.73;;;;;;;;;;4993933;28;20675;-56
2020/12/16 05:49:25;;;;;;;41.83;30.40;;;;;;;;;;5000020;28;20595;-57
2020/12/16 05:52:00;;;;;;;41.23;30.90;;;;;;;;;;5001413;28;20198;-56
2020/12/16 05:54:25;;;;;;;42.60;30.70;;;;;;;;;;5016867;28;20606;-56
2020/12/16 05:57:09;;;;;;;40.10;30.03;;;;;;;;;;5005421;28;20607;-56
2020/12/16 05:59:34;;;;;;;40.60;29.80;;;;;;;;;;5004018;28;20550;-57
2020/12/16 06:02:02;;;;;;;41.70;31.77;;;;;;;;;;5028667;28;20575;-57
2020/12/16 06:04:28;;;;;;;42.30;32.30;;;;;;;;;;5011258;28;20188;-57
2020/12/16 06:06:53;;;;;;;42.77;30.57;;;;;;;;;;5013030;28;20600;-57
2020/12/16 06:09:18;;;;;;;39.10;30.33;;;;;;;;;;5002579;28;20185;-58
2020/12/16 06:11:48;;;;;;;41.40;31.00;;;;;;;;;;4996106;28;20235;-57
2020/12/16 06:14:19;;;;;;;41.47;30.83;;;;;;;;;;5008716;28;20184;-57
2020/12/16 06:16:46;;;;;;;43.03;31.17;;;;;;;;;;5006532;28;20592;-57
2020/12/16 06:19:16;;;;;;;39.43;29.83;;;;;;;;;;5013007;28;20602;-57
2020/12/16 06:21:47;;;;;;;40.63;29.03;;;;;;;;;;5007643;28;20660;-56
2020/12/16 06:24:13;;;;;;;40.43;29.70;;;;;;;;;;4998936;28;20640;-58
2020/12/16 06:26:41;;;;;;;41.63;30.53;;;;;;;;;;5004784;28;20651;-57
2020/12/16 06:29:06;;;;;;;38.30;29.57;;;;;;;;;;4988449;28;20611;-57
2020/12/16 06:31:32;;;;;;;38.85;30.40;;;;;;;;;;5014536;28;20697;-56
2020/12/16 06:34:04;;;;;;;42.07;30.70;;;;;;;;;;5013380;28;20232;-57
2020/12/16 06:36:40;;;;;;;40.13;29.77;;;;;;;;;;5009343;28;20255;-57
2020/12/16 06:39:32;;;;;;;37.93;28.70;;;;;;;;;;5015462;28;20610;-57
2020/12/16 06:41:58;;;;;;;42.67;30.80;;;;;;;;;;5009606;28;20673;-57
2020/12/16 06:44:25;;;;;;;38.57;28.57;;;;;;;;;;5015126;28;21154;-57
2020/12/16 06:46:52;;;;;;;37.90;30.10;;;;;;;;;;5008961;28;20594;-57
2020/12/16 06:49:23;;;;;;;40.23;29.67;;;;;;;;;;5017487;28;20976;-56
2020/12/16 06:51:49;;;;;;;40.13;30.00;;;;;;;;;;5001824;28;20647;-56
2020/12/16 06:54:15;;;;;;;42.23;30.90;;;;;;;;;;5021896;28;20603;-56
2020/12/16 06:56:44;;;;;;;43.17;30.70;;;;;;;;;;5026411;28;20571;-57
2020/12/16 06:59:13;;;;;;;41.20;30.20;;;;;;;;;;5005270;28;20602;-56
2020/12/16 07:01:38;;;;;;;41.50;30.00;;;;;;;;;;5008944;28;20589;-57
2020/12/16 07:04:09;;;;;;;43.17;31.23;;;;;;;;;;5012520;28;20958;-57
2020/12/16 07:06:35;;;;;;;41.73;31.43;;;;;;;;;;5017276;28;20213;-57
2020/12/16 07:09:17;;;;;;;41.77;29.83;;;;;;;;;;5017318;28;20599;-57
2020/12/16 07:11:43;;;;;;;41.07;31.40;;;;;;;;;;5001697;28;20674;-57
2020/12/16 07:14:09;;;;;;;40.10;31.00;;;;;;;;;;4996938;28;20608;-57
2020/12/16 07:16:34;;;;;;;39.17;29.93;;;;;;;;;;4993228;28;20578;-57
2020/12/16 07:19:00;;;;;;;45.07;30.90;;;;;;;;;;5004343;28;20964;-57
2020/12/16 07:21:25;;;;;;;41.08;30.80;;;;;;;;;;5010985;28;20540;-57
2020/12/16 07:23:54;;;;;;;38.70;28.73;;;;;;;;;;5026954;28;20225;-58
2020/12/16 07:26:21;;;;;;;40.53;30.67;;;;;;;;;;5010904;28;20649;-58
2020/12/16 07:28:46;;;;;;;38.23;28.67;;;;;;;;;;5017412;28;20611;-58
2020/12/16 07:31:11;;;;;;;41.80;30.37;;;;;;;;;;5027640;28;21011;-57
2020/12/16 07:33:36;;;;;;;38.30;29.77;;;;;;;;;;5020825;28;20180;-58
2020/12/16 07:36:02;;;;;;;42.20;30.70;;;;;;;;;;5010963;28;20196;-57
2020/12/16 07:38:27;;;;;;;42.53;30.47;;;;;;;;;;5011305;28;20172;-57
2020/12/16 07:40:56;;;;;;;47.07;32.67;;;;;;;;;;5005122;28;20608;-58
2020/12/16 07:43:22;;;;;;;44.23;30.47;;;;;;;;;;5032168;28;20705;-58
2020/12/16 07:45:59;;;;;;;41.07;31.00;;;;;;;;;;5020632;28;20679;-56
2020/12/16 07:48:25;;;;;;;44.17;31.33;;;;;;;;;;5019574;28;22355;-58
2020/12/16 07:50:57;;;;;;;45.17;32.00;;;;;;;;;;5028520;28;20688;-57
2020/12/16 07:53:22;;;;;;;44.97;31.30;;;;;;;;;;4992625;28;20169;-57
2020/12/16 07:55:47;;;;;;;40.15;31.30;;;;;;;;;;4999139;28;20603;-58
2020/12/16 07:58:12;;;;;;;42.60;31.98;;;;;;;;;;5010797;28;20180;-58
2020/12/16 08:00:37;;;;;;;42.47;30.10;;;;;;;;;;5009420;28;20730;-58
2020/12/16 08:03:03;;;;;;;39.30;29.53;;;;;;;;;;5032190;28;20535;-58
2020/12/16 08:05:28;;;;;;;42.73;30.90;;;;;;;;;;5019886;28;20229;-58
2020/12/16 08:07:59;;;;;;;39.70;29.70;;;;;;;;;;5007443;28;20185;-58
2020/12/16 08:10:25;;;;;;;40.30;30.40;;;;;;;;;;5007432;28;20197;-58
2020/12/16 08:12:53;;;;;;;40.25;28.98;;;;;;;;;;5029324;28;20621;-58
2020/12/16 08:15:19;;;;;;;38.80;29.40;;;;;;;;;;5025678;28;20229;-58
2020/12/16 08:17:45;;;;;;;41.13;29.37;;;;;;;;;;5013382;28;20682;-58
2020/12/16 08:20:20;;;;;;;42.10;30.00;;;;;;;;;;5014819;28;20187;-58
2020/12/16 08:22:47;;;;;;;39.97;29.20;;;;;;;;;;5016692;28;20702;-58
2020/12/16 08:25:12;;;;;;;38.70;29.03;;;;;;;;;;5012598;28;20668;-58
2020/12/16 08:27:39;;;;;;;37.97;28.80;;;;;;;;;;5021207;28;20611;-58
2020/12/16 08:30:41;;;;;;;41.97;29.70;;;;;;;;;;5005323;28;20631;-58
2020/12/16 08:33:08;;;;;;;40.67;29.27;;;;;;;;;;5010522;28;20608;-58
2020/12/16 08:35:38;;;;;;;43.67;31.47;;;;;;;;;;5011111;28;20579;-58
2020/12/16 08:38:05;;;;;;;44.87;31.60;;;;;;;;;;5011145;28;20592;-58
2020/12/16 08:40:30;;;;;;;39.73;29.83;;;;;;;;;;4996125;28;21250;-58
2020/12/16 08:43:15;;;;;;;40.60;29.13;;;;;;;;;;4991521;28;20678;-58
2020/12/16 08:45:40;;;;;;;43.50;30.23;;;;;;;;;;4991392;28;20183;-57
2020/12/16 08:48:05;;;;;;;39.13;30.15;;;;;;;;;;4991271;28;20573;-58
2020/12/16 08:50:30;;;;;;;39.67;29.10;;;;;;;;;;4990540;28;20208;-58
2020/12/16 08:52:59;;;;;;;37.43;29.20;;;;;;;;;;4991586;28;20174;-58
2020/12/16 08:55:24;;;;;;;39.57;29.43;;;;;;;;;;4991243;28;20180;-58
2020/12/16 08:57:54;;;;;;;40.80;29.30;;;;;;;;;;4991098;28;20615;-58
2020/12/16 09:00:24;;;;;;;40.80;28.83;;;;;;;;;;4990374;28;20197;-58
2020/12/16 09:03:06;;;;;;;39.43;28.97;;;;;;;;;;4991303;28;21122;-57
2020/12/16 09:05:33;;;;;;;45.27;32.57;;;;;;;;;;4991075;28;20987;-57
2020/12/16 09:08:07;;;;;;;39.70;30.10;;;;;;;;;;4991327;28;20581;-57
2020/12/16 09:10:35;;;;;;;40.97;30.10;;;;;;;;;;4989833;28;20727;-59
2020/12/16 09:13:05;;;;;;;40.57;31.10;;;;;;;;;;4991257;28;20584;-59
2020/12/16 09:15:31;;;;;;;43.23;31.30;;;;;;;;;;4990989;28;20644;-59
2020/12/16 09:17:56;;;;;;;40.03;30.00;;;;;;;;;;4991074;28;20581;-59
2020/12/16 09:20:21;;;;;;;40.40;30.60;;;;;;;;;;4988828;28;20190;-59
2020/12/16 09:22:52;;;;;;;41.78;29.85;;;;;;;;;;4990717;28;20641;-57
2020/12/16 09:25:17;;;;;;;42.03;29.73;;;;;;;;;;5008954;28;20233;-58
2020/12/16 09:27:55;;;;;;;41.65;29.67;;;;;;;;;;5004334;28;20672;-58
2020/12/16 09:30:24;;;;;;;42.90;31.20;;;;;;;;;;4988574;28;20210;-58
2020/12/16 09:32:50;;;;;;;38.37;28.63;;;;;;;;;;4991602;28;20977;-58
2020/12/16 09:35:15;;;;;;;43.33;30.10;;;;;;;;;;4989333;28;20627;-58
2020/12/16 09:37:40;;;;;;;44.63;30.10;;;;;;;;;;4987790;28;20596;-58
2020/12/16 09:40:10;;;;;;;38.80;30.80;;;;;;;;;;4985978;28;20781;-58
2020/12/16 09:42:35;;;;;;;42.87;30.57;;;;;;;;;;4990756;28;20171;-58
2020/12/16 09:45:07;;;;;;;41.13;29.77;;;;;;;;;;4989989;28;20639;-58
2020/12/16 09:47:40;;;;;;;42.27;31.63;;;;;;;;;;4989773;28;20178;-58
2020/12/16 09:50:06;;;;;;;41.63;31.10;;;;;;;;;;4987527;28;20980;-58
2020/12/16 09:52:32;;;;;;;45.63;31.03;;;;;;;;;;4989553;28;20585;-58
2020/12/16 09:54:58;;;;;;;41.07;29.33;;;;;;;;;;4990750;28;20171;-58
2020/12/16 09:57:23;;;;;;;45.60;30.30;;;;;;;;;;4989466;28;20593;-58
2020/12/16 09:59:51;;;;;;;39.47;28.97;;;;;;;;;;4987552;28;20934;-58
2020/12/16 10:02:17;;;;;;;43.37;30.43;;;;;;;;;;4989670;28;20180;-56
2020/12/16 10:04:42;;;;;;;43.47;30.00;;;;;;;;;;4990850;28;20704;-58
2020/12/16 10:07:07;;;;;;;44.00;31.83;;;;;;;;;;4989551;28;20195;-59
2020/12/16 10:09:35;;;;;;;44.08;32.15;;;;;;;;;;4987665;28;20652;-59
2020/12/16 10:12:01;;;;;;;44.47;31.57;;;;;;;;;;4989292;28;20697;-58
2020/12/16 10:14:26;;;;;;;43.07;31.30;;;;;;;;;;4990474;28;20653;-56
2020/12/16 10:16:51;;;;;;;44.03;30.65;;;;;;;;;;4993037;28;20264;-56
2020/12/16 10:19:16;;;;;;;40.88;30.38;;;;;;;;;;5007915;28;20304;-59
2020/12/16 10:21:45;;;;;;;44.73;32.13;;;;;;;;;;5009731;28;20244;-57
2020/12/16 10:24:10;;;;;;;47.83;32.60;;;;;;;;;;5008566;28;20284;-56
2020/12/16 10:26:35;;;;;;;44.38;32.10;;;;;;;;;;5011947;28;20659;-59
2020/12/16 10:29:01;;;;;;;45.97;31.75;;;;;;;;;;5022185;28;20185;-58
2020/12/16 10:31:26;;;;;;;47.43;31.07;;;;;;;;;;5015449;28;20197;-57
2020/12/16 10:33:51;;;;;;;42.17;29.05;;;;;;;;;;5025750;28;20185;-56
2020/12/16 10:36:16;;;;;;;42.90;29.77;;;;;;;;;;5011344;28;20192;-56
2020/12/16 10:38:41;;;;;;;45.03;30.55;;;;;;;;;;5021140;28;20176;-57
2020/12/16 10:41:06;;;;;;;46.20;30.25;;;;;;;;;;5011801;28;20181;-57
2020/12/16 10:43:32;;;;;;;49.35;32.08;;;;;;;;;;5015790;28;20671;-57
2020/12/16 10:45:58;;;;;;;39.77;28.67;;;;;;;;;;5014512;28;20178;-56
2020/12/16 10:48:23;;;;;;;40.42;29.20;;;;;;;;;;5020717;28;20677;-56
2020/12/16 10:50:48;;;;;;;46.15;31.33;;;;;;;;;;5009812;28;20343;-58
2020/12/16 10:53:13;;;;;;;43.83;30.95;;;;;;;;;;4996207;28;20170;-57
2020/12/16 10:55:38;;;;;;;43.05;30.83;;;;;;;;;;5007709;28;20739;-57
2020/12/16 10:58:03;;;;;;;42.05;30.70;;;;;;;;;;4995882;28;20205;-57
2020/12/16 11:00:28;;;;;;;43.80;30.63;;;;;;;;;;4991603;28;20194;-58
2020/12/16 11:02:54;;;;;;;41.78;31.08;;;;;;;;;;5005458;28;20639;-57
2020/12/16 11:05:19;;;;;;;43.70;31.35;;;;;;;;;;5005654;28;20681;-56
2020/12/16 11:07:44;;;;;;;41.67;29.13;;;;;;;;;;5004203;28;20219;-57
2020/12/16 11:10:09;;;;;;;46.13;30.40;;;;;;;;;;4997427;28;20196;-58
2020/12/16 11:12:34;;;;;;;43.28;31.05;;;;;;;;;;5005957;28;20648;-57
2020/12/16 11:14:59;;;;;;;45.33;31.70;;;;;;;;;;4997934;28;20177;-57
2020/12/16 11:17:24;;;;;;;43.22;30.75;;;;;;;;;;5002518;28;20177;-58
2020/12/16 11:19:50;;;;;;;45.58;31.33;;;;;;;;;;4990926;28;20220;-57
2020/12/16 11:22:15;;;;;;;46.40;31.77;;;;;;;;;;5005550;28;20191;-58
2020/12/16 11:24:40;;;;;;;44.50;31.63;;;;;;;;;;5021470;28;20761;-57
2020/12/16 11:27:05;;;;;;;43.87;32.33;;;;;;;;;;5004446;28;20677;-57
2020/12/16 11:29:31;;;;;;;43.30;30.63;;;;;;;;;;5016715;28;20173;-57
2020/12/16 11:31:57;;;;;;;44.37;31.83;;;;;;;;;;4999913;28;20221;-56
2020/12/16 11:34:24;;;;;;;48.03;31.73;;;;;;;;;;4998354;28;20726;-57
2020/12/16 11:36:50;;;;;;;45.50;31.30;;;;;;;;;;5024083;28;20199;-57
2020/12/16 11:39:16;;;;;;;43.30;29.20;;;;;;;;;;5021135;28;20717;-56
2020/12/16 11:41:42;;;;;;;39.27;29.47;;;;;;;;;;5028650;28;20698;-58
2020/12/16 11:44:07;;;;;;;41.97;29.90;;;;;;;;;;5015244;28;20622;-58
2020/12/16 11:46:33;;;;;;;42.03;28.63;;;;;;;;;;5026905;28;20599;-57
2020/12/16 11:48:58;;;;;;;43.33;29.67;;;;;;;;;;5014955;28;20243;-57
2020/12/16 11:51:24;;;;;;;38.70;29.20;;;;;;;;;;5013964;28;20201;-59
2020/12/16 11:53:49;;;;;;;38.30;26.63;;;;;;;;;;5013480;28;20189;-57
2020/12/16 11:56:14;;;;;;;43.33;31.53;;;;;;;;;;4997907;28;20252;-59
2020/12/16 11:58:39;;;;;;;40.72;29.08;;;;;;;;;;5006230;28;20662;-60
2020/12/16 12:01:04;;;;;;;41.35;29.88;;;;;;;;;;5000896;28;20184;-60
2020/12/16 12:03:57;;;;;;;36.28;27.13;;;;;;;;;;4992140;28;20207;-59
2020/12/16 12:06:22;;;;;;;40.50;29.80;;;;;;;;;;4991730;28;20211;-59
2020/12/16 12:08:47;;;;;;;38.07;28.30;;;;;;;;;;4996222;28;21041;-57
2020/12/16 12:11:14;;;;;;;37.72;29.00;;;;;;;;;;5006013;28;20218;-57
2020/12/16 12:13:42;;;;;;;36.50;28.07;;;;;;;;;;5020636;28;20198;-57
2020/12/16 12:16:07;;;;;;;34.37;25.73;;;;;;;;;;5011070;28;20664;-57
2020/12/16 12:18:32;;;;;;;31.57;22.40;;;;;;;;;;5004224;28;20624;-57
2020/12/16 12:20:58;;;;;;;29.23;23.80;;;;;;;;;;4992059;28;20615;-58
2020/12/16 12:23:23;;;;;;;33.50;23.63;;;;;;;;;;5007162;28;21733;-57
2020/12/16 12:25:48;;;;;;;29.52;23.17;;;;;;;;;;5000825;28;20232;-57
2020/12/16 12:28:13;;;;;;;30.58;23.23;;;;;;;;;;5004548;28;20252;-57
2020/12/16 12:30:39;;;;;;;30.73;23.33;;;;;;;;;;5008213;28;20207;-58
2020/12/16 12:33:04;;;;;;;29.53;23.30;;;;;;;;;;5000766;28;20544;-58
2020/12/16 12:35:29;;;;;;;27.67;22.30;;;;;;;;;;5005721;28;20213;-57
2020/12/16 12:37:55;;;;;;;26.17;21.20;;;;;;;;;;5009895;28;20300;-57
2020/12/16 12:40:20;;;;;;;27.67;21.45;;;;;;;;;;5005984;28;20196;-57
2020/12/16 12:42:45;;;;;;;26.20;20.30;;;;;;;;;;5002580;28;20274;-58
2020/12/16 12:45:10;;;;;;;25.40;20.55;;;;;;;;;;5004631;28;20368;-57
2020/12/16 12:47:35;;;;;;;26.37;21.73;;;;;;;;;;5000081;28;20192;-58
2020/12/16 12:50:00;;;;;;;28.67;21.73;;;;;;;;;;5001016;28;20172;-58
2020/12/16 12:52:25;;;;;;;26.20;22.10;;;;;;;;;;5006803;28;20185;-58
2020/12/16 12:54:51;;;;;;;29.13;23.08;;;;;;;;;;4992541;28;20185;-58
2020/12/16 12:57:20;;;;;;;28.90;22.40;;;;;;;;;;4991993;28;20186;-58
2020/12/16 12:59:45;;;;;;;28.80;21.90;;;;;;;;;;4991034;28;20184;-57
2020/12/16 13:02:10;;;;;;;30.08;22.30;;;;;;;;;;4989045;28;20649;-58
2020/12/16 13:04:35;;;;;;;29.60;23.13;;;;;;;;;;4996079;28;20562;-58
2020/12/16 13:07:00;;;;;;;28.85;22.35;;;;;;;;;;4996770;28;20190;-58
2020/12/16 13:09:25;;;;;;;29.70;22.95;;;;;;;;;;4995691;28;20182;-58
2020/12/16 13:11:50;;;;;;;30.73;24.33;;;;;;;;;;4994213;28;20295;-58
2020/12/16 13:14:16;;;;;;;30.05;23.38;;;;;;;;;;4995812;28;20177;-58
2020/12/16 13:16:45;;;;;;;28.40;22.10;;;;;;;;;;4996621;28;20174;-58
2020/12/16 13:19:15;;;;;;;29.97;23.20;;;;;;;;;;4995384;28;20184;-58
2020/12/16 13:21:40;;;;;;;29.97;22.80;;;;;;;;;;4996799;28;20629;-59
2020/12/16 13:24:05;;;;;;;30.77;23.60;;;;;;;;;;4996618;28;20655;-58
2020/12/16 13:26:30;;;;;;;28.77;22.20;;;;;;;;;;4993215;28;20228;-56
2020/12/16 13:28:55;;;;;;;34.85;26.70;;;;;;;;;;4995694;28;20579;-58
2020/12/16 13:31:21;;;;;;;28.55;22.75;;;;;;;;;;5007295;28;20214;-58
2020/12/16 13:33:46;;;;;;;29.65;23.38;;;;;;;;;;4993646;28;20210;-58
2020/12/16 13:36:11;;;;;;;29.00;23.50;;;;;;;;;;4994633;28;20516;-57
2020/12/16 13:38:36;;;;;;;31.77;25.07;;;;;;;;;;5013352;28;20176;-57
2020/12/16 13:41:04;;;;;;;30.20;23.95;;;;;;;;;;4988415;28;20197;-58
2020/12/16 13:43:29;;;;;;;29.93;23.70;;;;;;;;;;4995265;28;20200;-58
2020/12/16 13:45:54;;;;;;;32.75;23.73;;;;;;;;;;4996986;28;21171;-58
2020/12/16 13:48:19;;;;;;;35.00;26.60;;;;;;;;;;4995473;28;20194;-58
2020/12/16 13:50:45;;;;;;;32.67;25.13;;;;;;;;;;4997188;28;20217;-57
2020/12/16 13:53:10;;;;;;;33.03;25.40;;;;;;;;;;4989951;28;20208;-58
2020/12/16 13:55:35;;;;;;;34.40;27.03;;;;;;;;;;4990119;28;20173;-58
2020/12/16 13:58:00;;;;;;;34.67;27.23;;;;;;;;;;4991485;28;20196;-57
2020/12/16 14:00:26;;;;;;;35.73;25.70;;;;;;;;;;4998158;28;20690;-57
2020/12/16 14:02:51;;;;;;;34.08;26.85;;;;;;;;;;4999414;28;20198;-58
2020/12/16 14:05:16;;;;;;;33.00;26.95;;;;;;;;;;4995611;28;20181;-58
2020/12/16 14:07:42;;;;;;;36.22;27.40;;;;;;;;;;4993241;28;20558;-58
2020/12/16 14:10:07;;;;;;;36.90;26.93;;;;;;;;;;4988903;28;20180;-58
2020/12/16 14:12:34;;;;;;;35.87;27.20;;;;;;;;;;4984785;28;21007;-58